createdAt,value
2018-02-23T00:01:22.368Z,11.43
2018-02-23T00:03:50.438Z,10.67
2018-02-23T00:06:18.483Z,10.60
2018-02-23T00:08:46.173Z,9.80
2018-02-23T00:11:13.843Z,10.10
2018-02-23T00:13:41.912Z,10.03
2018-02-23T00:16:09.953Z,10.40
2018-02-23T00:18:37.611Z,10.00
2018-02-23T00:21:05.258Z,10.97
2018-02-23T00:23:32.936Z,10.53
2018-02-23T00:26:00.599Z,9.90
2018-02-23T00:28:28.298Z,12.13
2018-02-23T00:30:55.971Z,11.70
2018-02-23T00:33:23.647Z,10.97
2018-02-23T00:35:51.299Z,11.77
2018-02-23T00:38:18.954Z,12.67
2018-02-23T00:40:46.630Z,11.80
2018-02-23T00:43:14.286Z,11.87
2018-02-23T00:45:41.957Z,11.63
2018-02-23T00:48:09.646Z,12.90
2018-02-23T00:50:37.310Z,13.60
2018-02-23T00:53:04.971Z,13.03
2018-02-23T00:55:32.675Z,13.00
2018-02-23T00:58:00.720Z,12.90
2018-02-23T01:00:28.381Z,12.63
2018-02-23T01:02:56.044Z,14.10
2018-02-23T01:05:23.763Z,14.23
2018-02-23T01:07:51.763Z,13.80
2018-02-23T01:10:19.917Z,13.60
2018-02-23T01:12:47.624Z,13.43
2018-02-23T01:15:15.680Z,14.30
2018-02-23T01:17:43.335Z,14.97
2018-02-23T01:20:11.022Z,15.23
2018-02-23T01:22:39.082Z,15.60
2018-02-23T01:25:06.744Z,15.20
2018-02-23T01:27:34.420Z,15.20
2018-02-23T01:30:02.479Z,14.97
2018-02-23T01:32:30.158Z,15.37
2018-02-23T01:34:58.221Z,14.60
2018-02-23T01:37:25.894Z,14.77
2018-02-23T01:39:53.954Z,15.47
2018-02-23T01:42:21.639Z,14.13
2018-02-23T01:44:49.308Z,13.90
2018-02-23T01:47:16.970Z,13.80
2018-02-23T01:49:44.626Z,12.00
2018-02-23T01:52:12.297Z,13.60
2018-02-23T01:54:39.940Z,13.10
2018-02-23T01:57:08.002Z,13.57
2018-02-23T01:59:36.071Z,13.20
2018-02-23T02:02:03.767Z,13.13
2018-02-23T02:04:31.427Z,12.90
2018-02-23T02:06:59.100Z,12.53
2018-02-23T02:09:26.756Z,13.10
2018-02-23T02:11:54.512Z,12.73
2018-02-23T02:14:22.177Z,13.10
2018-02-23T02:16:49.840Z,11.60
2018-02-23T02:19:17.499Z,12.00
2018-02-23T02:21:45.168Z,14.30
2018-02-23T02:24:12.830Z,11.90
2018-02-23T02:26:40.488Z,13.20
2018-02-23T02:29:08.137Z,13.63
2018-02-23T02:31:35.813Z,13.03
2018-02-23T02:34:03.474Z,12.47
2018-02-23T02:36:31.137Z,12.67
2018-02-23T02:38:58.882Z,13.23
2018-02-23T02:41:26.976Z,15.00
2018-02-23T02:43:54.648Z,12.93
2018-02-23T02:46:22.403Z,12.23
2018-02-23T02:48:50.107Z,13.13
2018-02-23T02:51:17.795Z,13.67
2018-02-23T02:53:45.838Z,14.30
2018-02-23T02:56:13.503Z,16.20
2018-02-23T02:58:41.167Z,13.70
2018-02-23T03:01:08.850Z,14.43
2018-02-23T03:03:36.506Z,14.30
2018-02-23T03:06:04.173Z,13.93
2018-02-23T03:08:31.835Z,14.03
2018-02-23T03:10:59.532Z,13.57
2018-02-23T03:13:27.179Z,15.53
2018-02-23T03:15:55.233Z,14.20
2018-02-23T03:18:22.884Z,14.90
2018-02-23T03:20:50.692Z,14.50
2018-02-23T03:23:18.356Z,14.33
2018-02-23T03:25:46.030Z,14.20
2018-02-23T03:28:13.677Z,14.70
2018-02-23T03:30:41.388Z,16.30
2018-02-23T03:33:09.062Z,16.70
2018-02-23T03:35:36.736Z,15.77
2018-02-23T03:38:04.784Z,16.20
2018-02-23T03:40:32.449Z,15.57
2018-02-23T03:43:00.121Z,15.77
2018-02-23T03:45:27.803Z,16.03
2018-02-23T03:47:55.850Z,16.80
2018-02-23T03:50:23.526Z,16.97
2018-02-23T03:52:52.300Z,15.57
2018-02-23T03:55:19.944Z,17.30
2018-02-23T03:57:47.619Z,15.47
2018-02-23T04:00:15.291Z,16.43
2018-02-23T04:02:42.979Z,16.43
2018-02-23T04:05:11.060Z,16.20
2018-02-23T04:07:38.728Z,17.03
2018-02-23T04:10:06.395Z,16.50
2018-02-23T04:12:34.059Z,17.50
2018-02-23T04:15:01.734Z,18.53
2018-02-23T04:17:29.396Z,17.00
2018-02-23T04:19:57.035Z,19.27
2018-02-23T04:22:24.724Z,17.83
2018-02-23T04:24:52.384Z,18.43
2018-02-23T04:27:20.056Z,19.87
2018-02-23T04:29:48.556Z,19.63
2018-02-23T04:32:16.255Z,18.50
2018-02-23T04:34:43.917Z,18.80
2018-02-23T04:37:11.581Z,19.47
2018-02-23T04:39:39.259Z,19.43
2018-02-23T04:42:06.927Z,18.47
2018-02-23T04:44:34.592Z,19.20
2018-02-23T04:47:02.260Z,20.00
2018-02-23T04:49:31.020Z,20.20
2018-02-23T04:51:58.688Z,19.80
2018-02-23T04:54:26.352Z,21.07
2018-02-23T04:56:54.047Z,20.27
2018-02-23T04:59:21.708Z,20.53
2018-02-23T05:01:49.452Z,19.70
2018-02-23T05:04:17.114Z,19.10
2018-02-23T05:06:44.785Z,21.60
2018-02-23T05:09:12.440Z,21.20
2018-02-23T05:11:40.122Z,22.73
2018-02-23T05:14:07.789Z,23.17
2018-02-23T05:16:35.486Z,22.07
2018-02-23T05:19:03.139Z,24.17
2018-02-23T05:21:30.808Z,23.73
2018-02-23T05:23:58.512Z,24.77
2018-02-23T05:26:26.202Z,25.10
2018-02-23T05:28:53.879Z,24.48
2018-02-23T05:31:21.969Z,24.15
2018-02-23T05:33:50.050Z,24.30
2018-02-23T05:36:18.129Z,26.90
2018-02-23T05:38:46.185Z,24.97
2018-02-23T05:41:14.266Z,25.53
2018-02-23T05:43:41.964Z,25.77
2018-02-23T05:46:09.640Z,28.60
2018-02-23T05:48:37.298Z,24.67
2018-02-23T05:51:04.971Z,25.97
2018-02-23T05:53:32.664Z,27.65
2018-02-23T05:56:00.356Z,25.02
2018-02-23T05:58:28.044Z,26.37
2018-02-23T06:00:55.738Z,27.23
2018-02-23T06:03:23.803Z,25.83
2018-02-23T06:05:51.494Z,24.05
2018-02-23T06:08:19.176Z,24.63
2018-02-23T06:10:46.860Z,28.23
2018-02-23T06:13:14.590Z,25.37
2018-02-23T06:15:47.929Z,25.65
2018-02-23T06:18:21.215Z,28.62
2018-02-23T06:20:48.907Z,26.75
2018-02-23T06:23:16.608Z,26.15
2018-02-23T06:25:44.372Z,27.48
2018-02-23T06:28:12.443Z,27.50
2018-02-23T06:30:40.216Z,25.83
2018-02-23T06:33:07.909Z,27.08
2018-02-23T06:35:35.570Z,30.47
2018-02-23T06:38:03.231Z,26.03
2018-02-23T06:40:30.895Z,28.17
2018-02-23T06:42:58.556Z,25.80
2018-02-23T06:45:27.020Z,28.00
2018-02-23T06:47:54.675Z,27.73
2018-02-23T06:50:22.539Z,29.00
2018-02-23T06:52:50.195Z,27.00
2018-02-23T06:55:18.243Z,27.40
2018-02-23T06:57:45.904Z,27.20
2018-02-23T07:00:13.545Z,28.30
2018-02-23T07:02:41.223Z,29.57
2018-02-23T07:05:08.882Z,28.90
2018-02-23T07:07:36.519Z,30.20
2018-02-23T07:10:04.182Z,30.13
2018-02-23T07:12:31.826Z,30.40
2018-02-23T07:14:59.478Z,30.30
2018-02-23T07:17:27.127Z,29.20
2018-02-23T07:19:54.794Z,29.87
2018-02-23T07:22:22.444Z,31.00
2018-02-23T07:24:50.527Z,32.80
2018-02-23T07:27:18.187Z,28.97
2018-02-23T07:29:45.847Z,31.83
2018-02-23T07:32:13.552Z,29.60
2018-02-23T07:34:41.205Z,32.33
2018-02-23T07:37:08.863Z,31.20
2018-02-23T07:39:36.507Z,32.07
2018-02-23T07:42:04.168Z,30.40
2018-02-23T07:44:31.832Z,31.57
2018-02-23T07:46:59.485Z,31.63
2018-02-23T07:49:27.175Z,34.20
2018-02-23T07:51:54.849Z,32.97
2018-02-23T07:54:22.518Z,32.97
2018-02-23T07:56:50.168Z,32.00
2018-02-23T07:59:17.820Z,31.70
2018-02-23T08:01:45.475Z,31.50
2018-02-23T08:04:13.124Z,32.03
2018-02-23T08:06:40.780Z,33.43
2018-02-23T08:09:08.440Z,36.20
2018-02-23T08:11:36.088Z,33.93
2018-02-23T08:14:04.148Z,35.27
2018-02-23T08:16:31.795Z,33.70
2018-02-23T08:18:59.471Z,34.50
2018-02-23T08:21:27.135Z,32.77
2018-02-23T08:23:54.780Z,33.87
2018-02-23T08:26:22.459Z,35.40
2018-02-23T08:28:50.122Z,31.60
2018-02-23T08:31:17.776Z,31.90
2018-02-23T08:33:45.425Z,33.37
2018-02-23T08:36:13.092Z,32.53
2018-02-23T08:38:40.746Z,32.80
2018-02-23T08:41:08.408Z,33.67
2018-02-23T08:43:41.531Z,34.27
2018-02-23T08:46:09.591Z,34.87
2018-02-23T08:48:37.639Z,34.93
2018-02-23T08:51:05.285Z,33.80
2018-02-23T08:53:32.928Z,33.70
2018-02-23T08:56:00.585Z,34.77
2018-02-23T08:58:28.333Z,33.80
2018-02-23T09:00:56.021Z,35.20
2018-02-23T09:03:23.674Z,34.80
2018-02-23T09:05:51.347Z,36.10
2018-02-23T09:08:19.007Z,34.63
2018-02-23T09:10:46.680Z,36.10
2018-02-23T09:13:14.327Z,34.33
2018-02-23T09:15:41.987Z,35.50
2018-02-23T09:18:09.646Z,33.70
2018-02-23T09:20:37.335Z,33.70
2018-02-23T09:23:04.980Z,32.10
2018-02-23T09:25:32.627Z,32.57
2018-02-23T09:28:00.277Z,31.47
2018-02-23T09:30:28.348Z,32.33
2018-02-23T09:32:57.118Z,29.73
2018-02-23T09:35:24.770Z,29.10
2018-02-23T09:37:52.419Z,27.40
2018-02-23T09:40:20.075Z,26.70
2018-02-23T09:42:47.802Z,29.57
2018-02-23T09:45:15.463Z,28.03
2018-02-23T09:47:43.124Z,28.60
2018-02-23T09:50:10.873Z,30.67
2018-02-23T09:52:38.536Z,25.93
2018-02-23T09:55:07.087Z,26.43
2018-02-23T09:57:34.766Z,26.13
2018-02-23T10:00:02.827Z,27.63
2018-02-23T10:02:30.878Z,26.37
2018-02-23T10:04:58.590Z,25.90
2018-02-23T10:07:26.214Z,25.73
2018-02-23T10:09:53.874Z,26.13
2018-02-23T10:12:21.522Z,26.03
2018-02-23T10:14:49.187Z,27.00
2018-02-23T10:17:16.825Z,24.17
2018-02-23T10:19:44.487Z,25.00
2018-02-23T10:22:12.155Z,23.30
2018-02-23T10:24:39.831Z,24.87
2018-02-23T10:27:21.984Z,25.07
2018-02-23T10:29:50.144Z,24.43
2018-02-23T10:32:18.731Z,23.30
2018-02-23T10:34:46.777Z,24.17
2018-02-23T10:37:14.435Z,25.27
2018-02-23T10:39:42.100Z,24.40
2018-02-23T10:42:09.758Z,23.90
2018-02-23T10:44:37.436Z,27.60
2018-02-23T10:47:05.088Z,26.60
2018-02-23T10:49:32.751Z,22.27
2018-02-23T10:52:00.395Z,22.77
2018-02-23T10:54:28.050Z,22.10
2018-02-23T10:56:55.762Z,21.23
2018-02-23T10:59:23.847Z,22.40
2018-02-23T11:01:52.092Z,22.40
2018-02-23T11:04:19.776Z,21.27
2018-02-23T11:06:47.822Z,21.87
2018-02-23T11:09:15.463Z,22.30
2018-02-23T11:11:43.132Z,20.33
2018-02-23T11:14:10.769Z,22.27
2018-02-23T11:16:38.440Z,21.33
2018-02-23T11:19:06.087Z,23.20
2018-02-23T11:21:33.748Z,21.37
2018-02-23T11:24:01.712Z,21.27
2018-02-23T11:26:29.359Z,21.37
2018-02-23T11:28:57.007Z,22.33
2018-02-23T11:31:25.058Z,20.87
2018-02-23T11:33:52.751Z,20.33
2018-02-23T11:36:20.412Z,22.07
2018-02-23T11:38:48.460Z,22.60
2018-02-23T11:41:16.116Z,20.27
2018-02-23T11:43:43.750Z,20.23
2018-02-23T11:46:11.410Z,19.10
2018-02-23T11:48:39.089Z,17.80
2018-02-23T11:51:06.760Z,19.87
2018-02-23T11:53:34.412Z,19.00
2018-02-23T11:56:02.075Z,17.93
2018-02-23T11:58:29.721Z,20.07
2018-02-23T12:00:57.394Z,19.30
2018-02-23T12:03:25.062Z,18.57
2018-02-23T12:05:52.724Z,18.97
2018-02-23T12:08:20.382Z,17.50
2018-02-23T12:10:48.085Z,17.97
2018-02-23T12:13:16.153Z,18.20
2018-02-23T12:15:44.220Z,18.10
2018-02-23T12:18:11.868Z,17.73
2018-02-23T12:20:39.527Z,17.00
2018-02-23T12:23:07.169Z,17.40
2018-02-23T12:25:34.843Z,17.87
2018-02-23T12:28:02.495Z,19.57
2018-02-23T12:30:30.180Z,18.30
2018-02-23T12:32:58.226Z,18.10
2018-02-23T12:35:25.941Z,19.33
2018-02-23T12:37:53.562Z,17.77
2018-02-23T12:40:21.228Z,17.60
2018-02-23T12:42:48.895Z,19.03
2018-02-23T12:45:16.588Z,17.90
2018-02-23T12:47:44.350Z,17.17
2018-02-23T12:50:12.042Z,20.93
2018-02-23T12:52:39.777Z,18.10
2018-02-23T12:55:07.497Z,19.53
2018-02-23T12:57:35.160Z,18.50
2018-02-23T13:00:02.834Z,17.17
2018-02-23T13:02:30.478Z,17.83
2018-02-23T13:04:58.140Z,18.37
2018-02-23T13:07:25.785Z,17.37
2018-02-23T13:09:53.450Z,18.00
2018-02-23T13:12:21.096Z,19.10
2018-02-23T13:14:54.386Z,17.70
2018-02-23T13:17:22.043Z,18.43
2018-02-23T13:19:49.687Z,19.40
2018-02-23T13:22:17.728Z,17.00
2018-02-23T13:24:45.402Z,17.87
2018-02-23T13:27:19.298Z,19.90
2018-02-23T13:29:46.973Z,17.40
2018-02-23T13:32:15.081Z,21.37
2018-02-23T13:34:42.741Z,18.10
2018-02-23T13:37:10.393Z,19.27
2018-02-23T13:39:38.099Z,18.50
2018-02-23T13:42:05.751Z,19.27
2018-02-23T13:44:33.407Z,20.33
2018-02-23T13:47:01.068Z,18.57
2018-02-23T13:49:28.731Z,20.20
2018-02-23T13:51:56.406Z,19.10
2018-02-23T13:54:24.082Z,20.50
2018-02-23T13:56:51.739Z,19.03
2018-02-23T13:59:19.402Z,17.93
2018-02-23T14:01:47.054Z,19.17
2018-02-23T14:04:14.706Z,19.37
2018-02-23T14:06:42.381Z,23.07
2018-02-23T14:09:10.060Z,20.67
2018-02-23T14:11:37.762Z,18.57
2018-02-23T14:14:05.373Z,18.13
2018-02-23T14:16:33.024Z,16.90
2018-02-23T14:19:00.672Z,15.57
2018-02-23T14:21:28.319Z,15.57
2018-02-23T14:23:55.980Z,15.83
2018-02-23T14:26:23.742Z,14.87
2018-02-23T14:28:51.408Z,13.90
2018-02-23T14:31:19.050Z,13.70
2018-02-23T14:33:47.251Z,13.87
2018-02-23T14:36:14.975Z,14.43
2018-02-23T14:38:43.040Z,15.80
2018-02-23T14:41:10.711Z,14.57
2018-02-23T14:43:38.770Z,16.67
2018-02-23T14:46:06.415Z,14.47
2018-02-23T14:48:45.835Z,16.00
2018-02-23T14:51:13.480Z,16.10
2018-02-23T14:53:41.145Z,15.10
2018-02-23T14:56:08.809Z,17.87
2018-02-23T14:58:36.454Z,16.20
2018-02-23T15:01:04.114Z,16.50
2018-02-23T15:03:31.787Z,15.30
2018-02-23T15:05:59.436Z,16.27
2018-02-23T15:08:27.079Z,15.07
2018-02-23T15:10:55.118Z,18.60
2018-02-23T15:13:22.773Z,18.10
2018-02-23T15:15:50.437Z,17.77
2018-02-23T15:18:18.085Z,15.23
2018-02-23T15:20:45.735Z,14.80
2018-02-23T15:23:13.394Z,15.27
2018-02-23T15:25:41.054Z,13.00
2018-02-23T15:28:08.706Z,16.90
2018-02-23T15:30:48.172Z,13.70
2018-02-23T15:33:15.831Z,16.27
2018-02-23T15:35:43.487Z,15.40
2018-02-23T15:38:11.241Z,17.17
2018-02-23T15:40:38.880Z,16.30
2018-02-23T15:43:06.937Z,16.20
2018-02-23T15:45:34.601Z,16.80
2018-02-23T15:48:18.956Z,17.40
2018-02-23T15:53:51.385Z,18.17
2018-02-23T15:56:19.764Z,16.80
2018-02-23T15:58:48.143Z,16.60
2018-02-23T16:01:16.503Z,17.13
2018-02-23T16:03:44.883Z,15.50
2018-02-23T16:06:13.264Z,16.33
2018-02-23T16:08:41.626Z,16.77
2018-02-23T16:11:10.393Z,15.40
2018-02-23T16:13:38.776Z,15.67
2018-02-23T16:16:07.135Z,16.60
2018-02-23T16:18:35.533Z,14.63
2018-02-23T16:21:03.917Z,15.20
2018-02-23T16:23:32.289Z,15.00
2018-02-23T16:26:00.636Z,14.00
2018-02-23T16:28:29.011Z,13.60
2018-02-23T16:30:57.380Z,14.47
2018-02-23T16:33:25.777Z,13.37
2018-02-23T16:35:54.174Z,11.93
2018-02-23T16:38:22.553Z,13.60
2018-02-23T16:40:50.916Z,12.00
2018-02-23T16:43:19.290Z,13.67
2018-02-23T16:45:47.672Z,13.40
2018-02-23T16:48:16.050Z,11.60
2018-02-23T16:50:44.424Z,10.80
2018-02-23T16:53:12.791Z,9.63
2018-02-23T16:55:41.172Z,10.80
2018-02-23T16:58:09.539Z,10.70
2018-02-23T17:00:37.907Z,10.93
2018-02-23T17:03:06.295Z,11.27
2018-02-23T17:05:34.672Z,11.10
2018-02-23T17:08:03.058Z,10.43
2018-02-23T17:10:31.418Z,11.70
2018-02-23T17:12:59.844Z,12.33
2018-02-23T17:15:28.222Z,10.80
2018-02-23T17:17:56.596Z,11.97
2018-02-23T17:20:24.991Z,12.47
2018-02-23T17:22:53.563Z,13.20
2018-02-23T17:25:21.927Z,16.13
2018-02-23T17:27:50.299Z,21.40
2018-02-23T17:30:18.669Z,25.93
2018-02-23T17:32:47.084Z,19.90
2018-02-23T17:35:15.466Z,12.53
2018-02-23T17:37:43.847Z,13.67
2018-02-23T17:40:12.224Z,15.17
2018-02-23T17:42:40.580Z,12.37
2018-02-23T17:45:08.965Z,11.33
2018-02-23T17:47:37.373Z,11.80
2018-02-23T17:50:05.745Z,11.37
2018-02-23T17:52:34.100Z,11.60
2018-02-23T17:55:02.480Z,11.70
2018-02-23T17:57:30.851Z,10.67
2018-02-23T17:59:59.240Z,10.97
2018-02-23T18:02:27.616Z,10.97
2018-02-23T18:04:55.995Z,12.07
2018-02-23T18:07:24.412Z,11.00
2018-02-23T18:09:52.779Z,11.53
2018-02-23T18:12:21.139Z,10.03
2018-02-23T18:14:49.493Z,9.70
2018-02-23T18:17:18.010Z,11.80
2018-02-23T18:19:46.385Z,10.07
2018-02-23T18:22:14.832Z,11.50
2018-02-23T18:24:43.200Z,10.10
2018-02-23T18:27:11.584Z,11.30
2018-02-23T18:29:39.969Z,12.13
2018-02-23T18:32:08.332Z,9.17
2018-02-23T18:34:36.736Z,11.27
2018-02-23T18:37:05.137Z,11.83
2018-02-23T18:39:33.515Z,12.60
2018-02-23T18:42:01.888Z,10.27
2018-02-23T18:44:30.313Z,11.17
2018-02-23T18:46:59.089Z,11.83
2018-02-23T18:49:27.873Z,11.33
2018-02-23T18:51:56.640Z,11.43
2018-02-23T18:54:25.039Z,10.50
2018-02-23T18:56:53.391Z,11.27
2018-02-23T18:59:21.770Z,11.47
2018-02-23T19:01:50.149Z,10.93
2018-02-23T19:04:18.512Z,10.40
2018-02-23T19:06:46.892Z,11.93
2018-02-23T19:09:15.268Z,12.97
2018-02-23T19:11:43.650Z,10.40
2018-02-23T19:14:12.019Z,10.63
2018-02-23T19:16:40.378Z,10.20
2018-02-23T19:19:08.748Z,11.80
2018-02-23T19:21:37.123Z,12.37
2018-02-23T19:24:05.903Z,11.70
2018-02-23T19:26:34.661Z,11.17
2018-02-23T19:29:03.039Z,10.87
2018-02-23T19:31:31.412Z,11.77
2018-02-23T19:33:59.820Z,11.43
2018-02-23T19:36:28.177Z,13.10
2018-02-23T19:38:56.551Z,13.67
2018-02-23T19:41:24.912Z,13.30
2018-02-23T19:43:53.289Z,12.97
2018-02-23T19:46:21.670Z,12.63
2018-02-23T19:48:50.044Z,12.57
2018-02-23T19:51:18.424Z,10.83
2018-02-23T19:53:46.805Z,12.80
2018-02-23T19:56:15.172Z,12.70
2018-02-23T19:58:43.561Z,14.80
2018-02-23T20:01:11.941Z,12.60
2018-02-23T20:03:40.362Z,15.90
2018-02-23T20:06:08.717Z,14.33
2018-02-23T20:08:37.089Z,14.87
2018-02-23T20:11:05.446Z,15.97
2018-02-23T20:13:33.816Z,13.63
2018-02-23T20:16:02.198Z,14.83
2018-02-23T20:18:30.680Z,12.87
2018-02-23T20:20:59.068Z,14.20
2018-02-23T20:23:27.582Z,16.03
2018-02-23T20:25:55.961Z,13.00
2018-02-23T20:28:24.447Z,12.20
2018-02-23T20:30:52.817Z,16.83
2018-02-23T20:33:21.222Z,14.17
2018-02-23T20:35:50.306Z,11.93
2018-02-23T20:38:18.935Z,15.63
2018-02-23T20:40:47.305Z,12.30
2018-02-23T20:43:15.690Z,13.50
2018-02-23T20:45:44.069Z,14.30
2018-02-23T20:48:12.529Z,15.03
2018-02-23T20:50:41.316Z,13.73
2018-02-23T20:53:09.724Z,13.80
2018-02-23T20:55:38.174Z,13.73
2018-02-23T20:58:06.952Z,13.17
2018-02-23T21:00:35.755Z,12.50
2018-02-23T21:03:04.123Z,13.10
2018-02-23T21:05:32.924Z,12.37
2018-02-23T21:08:01.892Z,12.00
2018-02-23T21:10:30.326Z,16.23
2018-02-23T21:12:58.697Z,13.40
2018-02-23T21:15:27.084Z,10.90
2018-02-23T21:17:55.516Z,11.70
2018-02-23T21:20:24.084Z,20.47
2018-02-23T21:22:52.443Z,13.10
2018-02-23T21:25:20.813Z,11.90
2018-02-23T21:27:49.239Z,13.17
2018-02-23T21:30:17.604Z,11.53
2018-02-23T21:32:45.998Z,13.00
2018-02-23T21:35:14.655Z,11.63
2018-02-23T21:37:43.027Z,11.03
2018-02-23T21:40:11.400Z,13.00
2018-02-23T21:42:39.934Z,13.63
2018-02-23T21:45:08.697Z,11.17
2018-02-23T21:47:37.137Z,12.43
2018-02-23T21:50:06.084Z,11.13
2018-02-23T21:52:34.561Z,11.50
2018-02-23T21:55:02.946Z,11.70
2018-02-23T21:57:31.359Z,12.43
2018-02-23T21:59:59.763Z,13.40
2018-02-23T22:02:28.409Z,15.00
2018-02-23T22:04:56.780Z,12.93
2018-02-23T22:07:25.558Z,13.40
2018-02-23T22:09:53.927Z,13.67
2018-02-23T22:12:22.296Z,15.60
2018-02-23T22:14:50.672Z,15.23
2018-02-23T22:17:19.092Z,13.90
2018-02-23T22:19:47.477Z,16.73
2018-02-23T22:22:15.843Z,12.10
2018-02-23T22:24:44.256Z,14.20
2018-02-23T22:27:12.624Z,14.10
2018-02-23T22:29:41.020Z,14.70
2018-02-23T22:32:09.377Z,15.30
2018-02-23T22:34:37.755Z,13.80
2018-02-23T22:37:06.133Z,13.80
2018-02-23T22:39:34.532Z,13.77
2018-02-23T22:42:02.950Z,14.90
2018-02-23T22:44:31.330Z,12.93
2018-02-23T22:47:00.114Z,14.90
2018-02-23T22:49:28.588Z,15.10
2018-02-23T22:51:56.982Z,14.80
2018-02-23T22:54:25.416Z,14.83
2018-02-23T22:56:53.769Z,15.03
2018-02-23T22:59:22.147Z,16.23
2018-02-23T23:01:50.520Z,14.43
2018-02-23T23:04:19.301Z,15.10
2018-02-23T23:06:48.073Z,13.67
2018-02-23T23:09:16.444Z,13.00
2018-02-23T23:11:44.828Z,14.43
2018-02-23T23:14:13.204Z,15.57
2018-02-23T23:16:41.561Z,15.53
2018-02-23T23:19:09.965Z,14.20
2018-02-23T23:21:38.332Z,16.10
2018-02-23T23:24:06.704Z,15.50
2018-02-23T23:26:35.926Z,15.40
2018-02-23T23:29:04.333Z,15.10
2018-02-23T23:31:32.705Z,15.70
2018-02-23T23:34:01.480Z,15.77
2018-02-23T23:36:30.264Z,15.00
2018-02-23T23:38:58.655Z,13.70
2018-02-23T23:41:28.260Z,14.17
2018-02-23T23:43:57.045Z,14.13
2018-02-23T23:46:25.436Z,13.53
2018-02-23T23:48:53.804Z,14.50
2018-02-23T23:51:22.566Z,13.20
2018-02-23T23:53:50.958Z,13.73
2018-02-23T23:56:19.324Z,13.20
2018-02-23T23:58:47.703Z,14.47
